Time;durP1;ratioP1;P1;durP2;ratioP2;P2;SDS_P1;SDS_P2;PMS_P1;PMS_P2;Temp;Humidity;BMP_temperature;BMP_pressure;BME280_temperature;BME280_humidity;BME280_pressure;Samples;Min_cycle;Max_cycle;Signal;HPM_P1;HPM_P2
2022/08/31 00:05:37;;;;;;;4.85;4.45;;;;;;;15.59;92.29;100437.69;10421164;28;20037;-72
2022/08/31 00:10:40;;;;;;;4.47;4.18;;;;;;;15.54;92.48;100441.50;10451810;22;20056;-74
2022/08/31 00:15:45;;;;;;;6.60;3.90;;;;;;;15.10;95.36;100437.25;10443555;28;20112;-74
2022/08/31 00:20:47;;;;;;;4.22;3.83;;;;;;;15.00;96.67;100430.63;10442825;28;20045;-74
2022/08/31 00:25:49;;;;;;;4.22;3.92;;;;;;;15.22;95.36;100427.03;10443610;28;20045;-75
2022/08/31 00:30:51;;;;;;;5.25;3.90;;;;;;;15.25;94.79;100433.06;10459554;28;20040;-74
2022/08/31 00:35:53;;;;;;;4.20;3.88;;;;;;;15.05;95.87;100435.72;10459650;28;20115;-73
2022/08/31 00:40:55;;;;;;;4.25;3.92;;;;;;;14.70;98.55;100442.53;10440690;28;20063;-73
2022/08/31 00:45:56;;;;;;;4.35;4.05;;;;;;;14.59;100.00;100441.19;10459287;28;20040;-73
2022/08/31 00:50:59;;;;;;;4.68;4.38;;;;;;;14.57;100.00;100450.13;10459063;28;20445;-73
2022/08/31 00:56:01;;;;;;;5.30;4.90;;;;;;;14.60;100.00;100453.50;10440387;28;20040;-73
2022/08/31 01:01:06;;;;;;;6.13;5.63;;;;;;;14.58;100.00;100449.22;10439710;28;20048;-73
2022/08/31 01:06:08;;;;;;;6.13;4.80;;;;;;;14.58;100.00;100444.78;10457238;28;20383;-73
2022/08/31 01:11:11;;;;;;;5.50;5.05;;;;;;;14.52;100.00;100452.09;10442596;28;20048;-73
2022/08/31 01:16:18;;;;;;;4.38;4.07;;;;;;;14.57;100.00;100452.78;10439919;28;20090;-72
2022/08/31 01:21:34;;;;;;;4.95;4.55;;;;;;;14.58;100.00;100451.84;10457773;28;20049;-73
2022/08/31 01:26:37;;;;;;;4.55;4.18;;;;;;;14.57;100.00;100450.13;10439608;28;20063;-73
2022/08/31 01:31:44;;;;;;;4.85;4.50;;;;;;;14.57;100.00;100455.44;10441122;28;20068;-77
2022/08/31 01:36:46;;;;;;;4.63;4.22;;;;;;;14.67;100.00;100458.53;10440609;28;20048;-77
2022/08/31 01:41:48;;;;;;;4.53;4.13;;;;;;;14.84;99.87;100458.69;10459457;28;20043;-76
2022/08/31 01:46:53;;;;;;;4.90;4.38;;;;;;;14.84;99.16;100456.06;10457540;28;20029;-76
2022/08/31 01:51:54;;;;;;;5.10;4.25;;;;;;;14.88;99.12;100455.00;10459202;28;20407;-76
2022/08/31 01:56:56;;;;;;;5.07;4.72;;;;;;;14.50;100.00;100456.59;10438558;28;20139;-76
2022/08/31 02:02:29;;;;;;;4.13;3.83;;;;;;;14.51;100.00;100456.53;10439728;28;20048;-76
2022/08/31 02:07:30;;;;;;;6.85;4.47;;;;;;;14.36;100.00;100451.84;10439232;28;20045;-76
2022/08/31 02:12:33;;;;;;;4.53;4.20;;;;;;;14.23;100.00;100440.03;10424183;28;20048;-76
2022/08/31 02:17:34;;;;;;;4.55;4.18;;;;;;;14.52;100.00;100434.47;10464944;28;20059;-76
2022/08/31 02:22:38;;;;;;;5.72;5.32;;;;;;;14.43;100.00;100436.56;10446648;28;20048;-76
2022/08/31 02:27:40;;;;;;;5.22;4.55;;;;;;;14.61;99.54;100430.56;10446556;28;20103;-76
2022/08/31 02:32:42;;;;;;;4.20;3.80;;;;;;;14.32;100.00;100427.28;10446458;28;20049;-75
2022/08/31 02:37:44;;;;;;;4.75;4.25;;;;;;;14.09;100.00;100422.09;10447800;28;20414;-76
2022/08/31 02:42:47;;;;;;;4.88;4.47;;;;;;;14.09;100.00;100425.59;10446037;28;20139;-77
2022/08/31 02:47:56;;;;;;;4.15;3.85;;;;;;;14.47;99.78;100428.44;10463894;28;20040;-76
2022/08/31 02:53:02;;;;;;;4.82;4.30;;;;;;;14.19;100.00;100428.72;10447294;28;20131;-76
2022/08/31 02:58:04;;;;;;;4.63;4.22;;;;;;;14.21;100.00;100431.28;10430996;28;20037;-76
2022/08/31 03:03:05;;;;;;;4.22;3.83;;;;;;;13.93;100.00;100429.75;10429215;28;20067;-76
2022/08/31 03:08:07;;;;;;;4.70;4.35;;;;;;;13.95;100.00;100432.34;10445217;28;20083;-76
2022/08/31 03:13:09;;;;;;;4.40;4.00;;;;;;;14.12;100.00;100419.31;10444998;28;20135;-76
2022/08/31 03:18:11;;;;;;;4.20;3.85;;;;;;;14.03;100.00;100422.31;10447986;28;20041;-76
2022/08/31 03:23:14;;;;;;;7.72;4.35;;;;;;;14.15;100.00;100419.19;10427947;28;20533;-77
2022/08/31 03:28:16;;;;;;;5.07;4.30;;;;;;;14.10;100.00;100426.44;10443215;28;20506;-76
2022/08/31 03:33:35;;;;;;;4.50;4.10;;;;;;;13.93;100.00;100424.47;10443585;28;20045;-76
2022/08/31 03:38:36;;;;;;;4.70;4.30;;;;;;;14.05;100.00;100421.34;10443773;28;20510;-76
2022/08/31 03:43:38;;;;;;;4.32;3.92;;;;;;;13.68;100.00;100423.69;10463733;28;20107;-75
2022/08/31 03:48:40;;;;;;;4.03;3.72;;;;;;;13.61;100.00;100425.72;10461688;28;20048;-76
2022/08/31 03:53:42;;;;;;;4.35;3.95;;;;;;;13.75;100.00;100426.03;10443165;28;20045;-77
2022/08/31 03:58:50;;;;;;;3.97;3.50;;;;;;;13.89;100.00;100436.06;10443461;28;20498;-76
2022/08/31 04:04:15;;;;;;;4.70;4.30;;;;;;;14.09;100.00;100436.16;10464217;28;20444;-76
2022/08/31 04:09:22;;;;;;;4.55;4.25;;;;;;;14.05;100.00;100431.06;10460345;28;20067;-76
2022/08/31 04:14:45;;;;;;;8.20;4.80;;;;;;;13.68;100.00;100439.53;10409663;28;20111;-76
2022/08/31 04:20:05;;;;;;;4.50;4.10;;;;;;;13.53;100.00;100435.72;10460089;28;20045;-76
2022/08/31 04:25:16;;;;;;;3.80;3.53;;;;;;;13.56;100.00;100441.75;10443794;28;20053;-76
2022/08/31 04:30:22;;;;;;;5.07;4.68;;;;;;;13.72;100.00;100451.72;10441201;28;20045;-75
2022/08/31 04:35:24;;;;;;;5.53;4.15;;;;;;;13.64;100.00;100459.94;10459217;28;20099;-75
2022/08/31 04:40:26;;;;;;;7.68;4.55;;;;;;;13.60;100.00;100466.28;10440330;28;20079;-76
2022/08/31 04:45:30;;;;;;;3.55;3.25;;;;;;;13.69;100.00;100459.78;10442319;28;20072;-76
2022/08/31 04:50:31;;;;;;;4.70;3.95;;;;;;;13.95;100.00;100454.34;10441360;28;20538;-76
2022/08/31 04:55:42;;;;;;;4.40;4.00;;;;;;;13.89;100.00;100467.78;10440400;28;20044;-76
2022/08/31 05:00:46;;;;;;;4.15;3.80;;;;;;;13.85;100.00;100469.69;10441291;28;20053;-76
2022/08/31 05:05:52;;;;;;;5.75;4.35;;;;;;;13.91;100.00;100478.31;10460503;28;20545;-74
2022/08/31 05:10:54;;;;;;;6.00;3.90;;;;;;;14.08;100.00;100482.03;10440671;28;20144;-73
2022/08/31 05:15:56;;;;;;;4.85;3.92;;;;;;;14.26;100.00;100484.88;10441370;28;20473;-72
2022/08/31 05:21:10;;;;;;;5.35;4.38;;;;;;;14.18;100.00;100489.59;10441353;28;20477;-72
2022/08/31 05:26:18;;;;;;;4.53;4.03;;;;;;;14.21;100.00;100493.00;10444180;28;20049;-73
2022/08/31 05:31:29;;;;;;;4.30;4.00;;;;;;;14.27;100.00;100484.81;10443679;28;20553;-73
2022/08/31 05:36:34;;;;;;;5.53;5.03;;;;;;;14.34;100.00;100491.59;10445174;28;20144;-74
2022/08/31 05:41:41;;;;;;;6.00;4.30;;;;;;;14.43;100.00;100487.69;10428349;28;20048;-73
2022/08/31 05:46:43;;;;;;;6.13;4.68;;;;;;;14.68;100.00;100494.66;10462190;28;20447;-73
2022/08/31 05:51:59;;;;;;;5.60;4.70;;;;;;;14.83;100.00;100500.19;10473452;28;20045;-74
2022/08/31 05:57:03;;;;;;;5.28;4.88;;;;;;;14.97;100.00;100507.53;10475741;28;20064;-72
2022/08/31 06:02:09;;;;;;;5.32;4.82;;;;;;;15.14;100.00;100512.97;10455186;28;20133;-71
2022/08/31 06:07:12;;;;;;;5.25;4.75;;;;;;;15.26;99.65;100516.88;10438894;28;20068;-71
2022/08/31 06:12:19;;;;;;;4.32;3.90;;;;;;;15.56;96.95;100519.97;10468890;22;20051;-71
2022/08/31 06:17:23;;;;;;;4.35;4.00;;;;;;;15.78;95.26;100516.38;10436198;28;20498;-70
2022/08/31 06:22:25;;;;;;;5.07;4.50;;;;;;;15.67;95.41;100516.88;10452462;28;20052;-70
2022/08/31 06:27:29;;;;;;;6.30;4.30;;;;;;;15.81;93.88;100525.06;10452883;28;20045;-70
2022/08/31 06:32:31;;;;;;;4.43;3.78;;;;;;;15.98;93.33;100529.59;10452949;28;20049;-71
2022/08/31 06:37:36;;;;;;;4.32;3.90;;;;;;;16.15;92.15;100531.44;10454086;28;20041;-70
2022/08/31 06:42:56;;;;;;;7.35;4.22;;;;;;;15.99;92.37;100536.63;10472167;28;20053;-70
2022/08/31 06:48:25;;;;;;;5.88;4.28;;;;;;;16.34;88.87;100542.06;10453123;28;20048;-70
2022/08/31 06:53:30;;;;;;;4.07;3.75;;;;;;;16.07;91.62;100544.19;10436822;28;20053;-70
2022/08/31 06:59:02;;;;;;;4.28;3.83;;;;;;;16.07;90.71;100546.84;10472469;28;20047;-70
2022/08/31 07:04:37;;;;;;;6.03;4.30;;;;;;;15.95;91.35;100542.97;10432779;28;20060;-71
2022/08/31 07:09:40;;;;;;;5.05;4.65;;;;;;;16.03;90.77;100551.44;10449016;28;20055;-71
2022/08/31 07:14:45;;;;;;;4.95;4.30;;;;;;;16.00;90.97;100553.38;10448430;28;20071;-70
2022/08/31 07:19:56;;;;;;;8.85;3.50;;;;;;;16.43;88.56;100551.38;10432973;28;20076;-70
2022/08/31 07:24:58;;;;;;;4.53;3.90;;;;;;;16.24;87.69;100546.91;10447834;28;20048;-70
2022/08/31 07:30:00;;;;;;;4.63;4.22;;;;;;;16.62;86.81;100545.09;10430011;28;20041;-70
2022/08/31 07:35:07;;;;;;;6.82;3.80;;;;;;;16.99;82.59;100547.75;10445618;28;20106;-70
2022/08/31 07:45:34;;;;;;;3.35;2.97;;;;;;;17.34;80.80;100557.44;10445877;28;20103;-70
2022/08/31 07:50:43;;;;;;;4.10;3.38;;;;;;;17.01;82.93;100560.03;10445838;28;20128;-70
2022/08/31 07:55:59;;;;;;;4.43;3.17;;;;;;;17.35;82.59;100561.84;10462609;28;20060;-70
2022/08/31 08:01:13;;;;;;;4.53;3.28;;;;;;;17.34;81.98;100562.75;10461671;28;20045;-70
2022/08/31 08:06:16;;;;;;;3.92;3.30;;;;;;;17.58;80.18;100559.78;10462453;28;20045;-71
2022/08/31 08:11:51;;;;;;;4.93;2.90;;;;;;;17.45;80.99;100562.22;10408885;28;20045;-69
2022/08/31 08:17:11;;;;;;;3.00;2.58;;;;;;;17.49;80.37;100558.47;10464010;28;20041;-69
2022/08/31 08:22:18;;;;;;;4.22;2.60;;;;;;;17.65;80.00;100567.34;10461946;28;20041;-69
2022/08/31 08:27:59;;;;;;;2.88;2.28;;;;;;;18.00;78.65;100558.47;10461372;28;20053;-69
2022/08/31 08:33:18;;;;;;;3.33;2.83;;;;;;;18.22;77.47;100563.47;10461361;28;20037;-69
2022/08/31 08:38:21;;;;;;;4.70;2.55;;;;;;;18.52;76.54;100566.25;10443004;28;20572;-70
2022/08/31 08:43:32;;;;;;;2.65;2.22;;;;;;;19.03;74.12;100565.06;10443413;28;20045;-71
2022/08/31 08:48:37;;;;;;;4.40;2.17;;;;;;;19.12;72.09;100567.22;10459846;28;20525;-71
2022/08/31 08:53:41;;;;;;;2.08;1.90;;;;;;;19.21;70.55;100565.78;10441686;28;20056;-70
2022/08/31 08:58:59;;;;;;;2.10;2.00;;;;;;;19.46;70.67;100570.53;10441891;28;20045;-69
2022/08/31 09:04:16;;;;;;;2.90;2.10;;;;;;;19.50;68.27;100572.06;10427485;28;20141;-69
2022/08/31 09:09:45;;;;;;;1.77;1.50;;;;;;;19.44;67.24;100574.25;10460171;28;20037;-70
2022/08/31 09:15:02;;;;;;;4.22;1.55;;;;;;;19.62;66.56;100574.03;10458696;28;20049;-69
2022/08/31 09:20:06;;;;;;;2.42;1.40;;;;;;;19.58;65.90;100568.94;10425424;28;20041;-70
2022/08/31 09:25:08;;;;;;;2.72;1.63;;;;;;;19.36;66.47;100569.38;10458771;28;20072;-69
2022/08/31 09:30:54;;;;;;;3.55;1.45;;;;;;;19.72;67.18;100570.81;10441541;28;20040;-69
2022/08/31 09:36:15;;;;;;;4.07;1.50;;;;;;;19.85;64.33;100564.63;10459237;28;20048;-70
2022/08/31 09:41:32;;;;;;;1.60;1.10;;;;;;;19.86;63.29;100562.81;10460219;28;20045;-69
2022/08/31 09:46:33;;;;;;;3.28;1.38;;;;;;;20.06;63.30;100561.56;10459210;28;20464;-69
2022/08/31 09:51:37;;;;;;;2.25;1.40;;;;;;;20.40;61.75;100560.25;10459272;28;20443;-69
2022/08/31 09:56:54;;;;;;;1.50;1.20;;;;;;;20.58;57.81;100556.44;10459649;28;20044;-69
2022/08/31 10:01:58;;;;;;;2.75;1.33;;;;;;;20.41;57.86;100560.19;10440224;28;20517;-69
2022/08/31 10:07:27;;;;;;;2.72;1.33;;;;;;;20.66;57.66;100553.28;10458003;28;20483;-69
2022/08/31 10:12:54;;;;;;;2.88;1.00;;;;;;;21.07;57.18;100550.53;10457943;28;20055;-69
2022/08/31 10:18:33;;;;;;;2.05;1.23;;;;;;;21.38;55.98;100553.81;10458452;28;20069;-69
2022/08/31 10:23:55;;;;;;;2.08;1.50;;;;;;;21.19;56.95;100548.84;10439756;28;20056;-70
2022/08/31 10:29:04;;;;;;;3.17;1.48;;;;;;;21.10;55.92;100544.97;10457421;28;20045;-70
2022/08/31 10:39:45;;;;;;;2.08;1.00;;;;;;;21.03;56.04;100545.47;10464844;28;20136;-69
2022/08/31 10:44:59;;;;;;;2.53;1.17;;;;;;;21.06;54.04;100542.59;10465718;28;20524;-69
2022/08/31 10:50:04;;;;;;;2.38;0.90;;;;;;;21.29;52.73;100541.91;10466454;28;20137;-69
2022/08/31 10:55:27;;;;;;;1.27;0.90;;;;;;;21.76;52.75;100544.97;10464747;28;20041;-69
2022/08/31 11:00:51;;;;;;;1.67;0.85;;;;;;;21.84;52.67;100545.28;10446864;28;20120;-69
2022/08/31 11:06:01;;;;;;;1.77;1.10;;;;;;;22.07;51.63;100541.81;10446288;28;20045;-69
2022/08/31 11:11:08;;;;;;;2.47;0.93;;;;;;;22.35;49.77;100537.16;10464285;28;20043;-70
2022/08/31 11:16:27;;;;;;;0.82;0.82;;;;;;;22.27;50.72;100537.75;10463463;28;20037;-69
2022/08/31 11:21:49;;;;;;;2.67;1.10;;;;;;;22.07;51.59;100539.13;10464117;28;20087;-69
2022/08/31 11:27:32;;;;;;;1.50;0.77;;;;;;;21.90;50.63;100539.47;10464388;28;20051;-69
2022/08/31 11:32:40;;;;;;;1.20;0.77;;;;;;;21.85;48.86;100530.94;10296068;28;20070;-69
2022/08/31 11:37:51;;;;;;;1.20;0.68;;;;;;;21.55;49.91;100532.09;10294983;28;20046;-69
2022/08/31 11:42:56;;;;;;;0.95;0.52;;;;;;;21.56;50.53;100520.47;10296013;28;20066;-69
2022/08/31 11:47:59;;;;;;;1.00;0.50;;;;;;;21.75;48.80;100525.38;10295892;28;20484;-69
2022/08/31 11:53:30;;;;;;;1.25;0.68;;;;;;;22.04;48.61;100530.47;10295298;28;20046;-69
2022/08/31 11:58:37;;;;;;;1.48;0.80;;;;;;;21.83;48.61;100527.53;10294723;28;20088;-70
2022/08/31 12:03:50;;;;;;;1.05;0.55;;;;;;;22.11;48.28;100529.94;10295032;28;20047;-70
2022/08/31 12:09:15;;;;;;;1.65;0.75;;;;;;;22.10;48.23;100524.69;10445249;28;20053;-69
2022/08/31 12:14:32;;;;;;;1.08;0.70;;;;;;;21.66;51.06;100513.50;10444490;28;20059;-73
2022/08/31 12:20:11;;;;;;;1.63;0.88;;;;;;;21.63;51.39;100516.38;10461315;28;20037;-73
2022/08/31 12:25:38;;;;;;;3.60;0.93;;;;;;;21.68;51.75;100508.03;10448565;28;20053;-74
2022/08/31 12:30:53;;;;;;;2.08;0.90;;;;;;;21.49;52.03;100511.16;10461235;28;20457;-73
2022/08/31 12:36:12;;;;;;;1.67;0.90;;;;;;;21.55;51.17;100508.03;10443591;28;20095;-73
2022/08/31 12:41:13;;;;;;;1.27;0.80;;;;;;;21.58;52.07;100506.97;10460780;28;20044;-73
2022/08/31 12:46:36;;;;;;;3.78;0.82;;;;;;;21.79;50.61;100505.47;10460439;28;20453;-73
2022/08/31 12:51:48;;;;;;;0.77;0.73;;;;;;;21.93;52.09;100504.47;10460233;28;20044;-74
2022/08/31 12:57:04;;;;;;;1.27;0.75;;;;;;;21.91;49.53;100503.72;10460428;28;20422;-74
2022/08/31 13:02:10;;;;;;;1.48;0.68;;;;;;;21.85;49.26;100502.34;10459395;28;20045;-75
2022/08/31 13:07:20;;;;;;;1.65;0.65;;;;;;;21.95;49.84;100504.34;10460901;28;20037;-74
2022/08/31 13:12:22;;;;;;;3.22;0.63;;;;;;;22.01;50.73;100495.91;10460177;28;20041;-74
2022/08/31 13:17:24;;;;;;;1.75;0.65;;;;;;;21.83;49.07;100496.25;10459779;28;20040;-74
2022/08/31 13:22:31;;;;;;;0.95;0.55;;;;;;;21.64;47.62;100494.00;10458999;28;20449;-73
2022/08/31 13:27:37;;;;;;;1.00;0.70;;;;;;;21.54;49.49;100497.47;10442103;28;20045;-74
2022/08/31 13:32:43;;;;;;;0.98;0.50;;;;;;;21.37;51.43;100494.13;10443268;28;20041;-74
2022/08/31 13:38:03;;;;;;;1.88;0.82;;;;;;;21.21;53.21;100493.47;10459604;28;20532;-73
2022/08/31 13:43:08;;;;;;;0.88;0.80;;;;;;;20.75;54.98;100495.72;10442935;28;20049;-74
2022/08/31 13:48:18;;;;;;;1.25;0.73;;;;;;;20.97;54.87;100485.28;10442067;28;20048;-74
2022/08/31 13:53:38;;;;;;;1.70;0.90;;;;;;;21.23;54.15;100490.69;10459911;28;20052;-75
2022/08/31 13:58:40;;;;;;;1.67;0.98;;;;;;;21.21;53.41;100484.59;10460383;28;20398;-74
2022/08/31 14:03:58;;;;;;;1.77;0.88;;;;;;;21.04;54.40;100483.91;10461583;28;20399;-74
2022/08/31 14:09:10;;;;;;;1.20;0.80;;;;;;;21.17;55.22;100481.25;10461130;28;20467;-73
2022/08/31 14:14:17;;;;;;;1.10;0.90;;;;;;;21.32;53.92;100484.72;10468382;28;20123;-74
2022/08/31 14:19:30;;;;;;;1.13;0.90;;;;;;;21.23;54.08;100477.31;10467879;28;20055;-73
2022/08/31 14:24:32;;;;;;;1.02;0.70;;;;;;;21.17;55.06;100462.56;10467405;28;20474;-74
2022/08/31 14:29:35;;;;;;;1.42;0.80;;;;;;;21.41;54.31;100474.22;10467815;28;20039;-74
2022/08/31 14:34:46;;;;;;;2.17;0.80;;;;;;;21.46;54.10;100475.72;10464958;28;20494;-74
2022/08/31 14:39:54;;;;;;;2.22;0.98;;;;;;;21.34;52.92;100472.97;10466063;28;20371;-73
2022/08/31 14:45:03;;;;;;;3.25;0.90;;;;;;;21.24;52.50;100479.88;10485426;28;20466;-73
2022/08/31 14:50:05;;;;;;;1.00;0.75;;;;;;;21.33;53.38;100475.72;10456233;28;20045;-75
2022/08/31 14:55:09;;;;;;;2.67;0.90;;;;;;;21.35;53.95;100472.00;10465890;28;20084;-75
2022/08/31 15:00:20;;;;;;;2.25;1.05;;;;;;;21.26;52.68;100469.94;10476124;28;20056;-73
2022/08/31 15:05:23;;;;;;;2.10;0.77;;;;;;;21.08;53.05;100460.50;10507856;28;20044;-74
2022/08/31 15:10:26;;;;;;;0.50;0.50;;;;;;;21.17;52.73;100459.88;10505870;28;20062;-74
2022/08/31 15:15:28;;;;;;;1.15;0.80;;;;;;;20.94;53.28;100465.94;10474026;28;20052;-72
2022/08/31 15:20:38;;;;;;;2.47;0.85;;;;;;;20.94;53.73;100458.78;10463350;28;20048;-72
2022/08/31 15:25:40;;;;;;;1.25;0.70;;;;;;;20.75;54.75;100459.16;10464149;28;20047;-76
2022/08/31 15:30:42;;;;;;;1.20;0.80;;;;;;;20.52;53.54;100462.53;10466106;28;20041;-73
2022/08/31 15:35:43;;;;;;;1.83;0.90;;;;;;;20.54;52.70;100460.59;10446343;28;20049;-74
2022/08/31 15:40:45;;;;;;;1.65;0.80;;;;;;;20.51;52.83;100461.66;10465718;28;20052;-74
2022/08/31 15:45:47;;;;;;;1.85;0.90;;;;;;;20.50;53.21;100459.97;10463626;28;20045;-75
2022/08/31 15:50:57;;;;;;;2.42;0.90;;;;;;;20.57;52.90;100450.56;10468317;28;20516;-75
2022/08/31 15:56:04;;;;;;;1.05;0.90;;;;;;;20.50;52.78;100446.59;10503296;28;20042;-74
2022/08/31 16:01:12;;;;;;;1.65;0.77;;;;;;;20.49;53.02;100444.03;10486736;28;20116;-74
2022/08/31 16:06:14;;;;;;;2.17;0.77;;;;;;;20.48;53.57;100444.97;10466471;28;20120;-75
2022/08/31 16:11:16;;;;;;;1.83;0.70;;;;;;;20.36;53.25;100450.16;10447314;28;20587;-74
2022/08/31 16:16:19;;;;;;;1.88;1.02;;;;;;;20.27;53.39;100437.38;10464820;28;20053;-75
2022/08/31 16:21:20;;;;;;;0.98;0.90;;;;;;;20.26;53.30;100437.50;10464042;28;20068;-73
2022/08/31 16:26:22;;;;;;;1.83;0.70;;;;;;;20.14;54.02;100448.03;10462139;28;20051;-74
2022/08/31 16:31:25;;;;;;;1.27;0.77;;;;;;;20.09;54.53;100444.78;10444241;28;20065;-73
2022/08/31 16:36:28;;;;;;;1.42;0.82;;;;;;;20.07;54.65;100441.38;10462879;28;20110;-73
2022/08/31 16:41:31;;;;;;;1.83;0.63;;;;;;;20.08;55.04;100448.41;10461037;28;20494;-74
2022/08/31 16:46:33;;;;;;;1.50;0.70;;;;;;;20.16;54.99;100434.59;10459898;28;20076;-75
2022/08/31 16:51:42;;;;;;;1.63;0.90;;;;;;;20.17;54.54;100434.47;10443427;28;20044;-74
2022/08/31 16:56:49;;;;;;;2.70;0.90;;;;;;;20.08;55.01;100435.06;10458716;28;20106;-74
2022/08/31 17:01:53;;;;;;;2.75;0.90;;;;;;;20.03;55.85;100434.53;10461491;28;20033;-74
2022/08/31 17:06:55;;;;;;;2.10;0.80;;;;;;;20.04;55.82;100436.22;10443572;28;20041;-74
2022/08/31 17:12:00;;;;;;;2.13;0.73;;;;;;;19.99;55.52;100445.50;10464852;28;20064;-75
2022/08/31 17:17:05;;;;;;;0.98;0.70;;;;;;;19.84;56.10;100434.84;10464398;28;20052;-74
2022/08/31 17:22:09;;;;;;;1.55;0.80;;;;;;;19.69;56.81;100449.16;10476751;28;20037;-74
2022/08/31 17:27:14;;;;;;;1.02;0.93;;;;;;;19.77;56.21;100451.34;10458820;28;20128;-74
2022/08/31 17:32:18;;;;;;;1.55;0.98;;;;;;;19.60;56.73;100452.38;10494390;28;20154;-74
2022/08/31 17:37:31;;;;;;;1.10;0.85;;;;;;;19.46;57.54;100458.56;10500669;28;20070;-74
2022/08/31 17:42:34;;;;;;;1.35;1.00;;;;;;;19.59;57.21;100456.00;10500667;28;20060;-75
2022/08/31 17:47:35;;;;;;;1.38;1.05;;;;;;;19.64;57.15;100465.44;10498761;28;20083;-75
2022/08/31 17:52:37;;;;;;;1.15;0.85;;;;;;;19.58;57.29;100467.63;10499315;28;20059;-76
2022/08/31 17:57:40;;;;;;;1.35;0.70;;;;;;;19.41;57.58;100464.19;10499443;28;20139;-73
2022/08/31 18:02:43;;;;;;;1.55;0.90;;;;;;;19.25;58.36;100467.88;10458570;28;20406;-74
2022/08/31 18:07:48;;;;;;;3.60;1.52;;;;;;;19.34;57.92;100476.16;10458624;28;20055;-75
2022/08/31 18:12:50;;;;;;;1.90;1.15;;;;;;;19.23;58.16;100475.97;10449148;22;20049;-68
2022/08/31 18:17:54;;;;;;;1.33;0.90;;;;;;;19.11;59.52;100484.69;10416298;28;20049;-69
2022/08/31 18:22:56;;;;;;;2.35;1.20;;;;;;;19.10;59.45;100491.84;10447377;28;20516;-69
2022/08/31 18:28:02;;;;;;;1.63;1.00;;;;;;;18.95;60.78;100487.44;10426065;28;20132;-68
2022/08/31 18:33:04;;;;;;;1.33;0.98;;;;;;;18.87;62.28;100492.34;10415807;28;20129;-68
2022/08/31 18:38:09;;;;;;;1.30;1.05;;;;;;;18.77;63.98;100494.69;10415837;28;20121;-68
2022/08/31 18:48:32;;;;;;;2.10;1.17;;;;;;;18.71;66.30;100491.53;10416696;28;20375;-69
2022/08/31 18:53:34;;;;;;;1.58;1.20;;;;;;;18.50;66.88;100499.75;10415604;28;20053;-69
2022/08/31 18:58:38;;;;;;;1.98;1.20;;;;;;;18.51;67.76;100503.31;10419733;28;20505;-68
2022/08/31 19:03:40;;;;;;;2.92;1.40;;;;;;;18.33;68.69;100497.22;10444650;28;20072;-68
2022/08/31 19:08:42;;;;;;;2.10;1.33;;;;;;;18.24;69.21;100497.72;10428110;28;20115;-68
2022/08/31 19:13:45;;;;;;;1.90;1.23;;;;;;;18.10;70.09;100504.66;10451570;28;20049;-69
2022/08/31 19:18:55;;;;;;;2.55;1.73;;;;;;;18.14;70.76;100494.72;10447586;28;20517;-68
2022/08/31 19:24:00;;;;;;;2.35;1.50;;;;;;;18.25;70.22;100500.31;10431718;28;20045;-68
2022/08/31 19:29:07;;;;;;;1.52;1.20;;;;;;;17.90;71.05;100499.59;10421915;28;20088;-69
2022/08/31 19:34:11;;;;;;;2.80;1.30;;;;;;;17.84;71.54;100503.47;10414597;28;20071;-68
2022/08/31 19:39:19;;;;;;;2.10;1.50;;;;;;;17.80;72.29;100503.72;10462281;28;20097;-68
2022/08/31 19:44:22;;;;;;;3.38;1.73;;;;;;;17.81;71.92;100502.75;10462139;28;20132;-68
2022/08/31 19:49:24;;;;;;;2.28;1.73;;;;;;;17.75;71.87;100501.31;10462238;28;20514;-68
2022/08/31 19:54:28;;;;;;;2.72;1.90;;;;;;;17.76;71.73;100502.16;10462123;28;20044;-69
2022/08/31 19:59:32;;;;;;;2.50;1.50;;;;;;;17.70;73.10;100494.47;10442172;28;20128;-68
2022/08/31 20:04:34;;;;;;;2.08;1.50;;;;;;;17.37;74.78;100488.22;10420820;28;20083;-67
2022/08/31 20:09:36;;;;;;;3.17;1.63;;;;;;;17.13;75.93;100492.13;10419230;28;20037;-68
2022/08/31 20:14:38;;;;;;;2.20;1.60;;;;;;;17.08;76.41;100496.81;10419594;28;20041;-70
2022/08/31 20:19:41;;;;;;;2.42;2.05;;;;;;;17.03;76.63;100496.22;10419302;28;20482;-69
2022/08/31 20:24:43;;;;;;;3.03;2.10;;;;;;;17.09;77.09;100494.13;10419124;28;20050;-69
2022/08/31 20:29:46;;;;;;;2.42;2.05;;;;;;;17.07;76.69;100497.78;10418892;28;20045;-69
2022/08/31 20:34:49;;;;;;;4.90;2.10;;;;;;;16.89;77.24;100494.25;10397335;28;20041;-69
2022/08/31 20:39:52;;;;;;;2.20;1.60;;;;;;;16.96;76.67;100498.34;10396997;28;20124;-68
2022/08/31 20:44:54;;;;;;;2.88;1.90;;;;;;;16.63;77.93;100490.22;10396674;28;20064;-69
2022/08/31 20:49:58;;;;;;;2.33;1.70;;;;;;;16.47;79.10;100492.78;10400268;28;20112;-70
2022/08/31 20:55:02;;;;;;;2.50;2.00;;;;;;;16.63;76.97;100501.69;10417637;28;20041;-70
2022/08/31 21:00:06;;;;;;;2.03;1.83;;;;;;;16.48;78.18;100494.50;10399791;28;20483;-69
2022/08/31 21:05:09;;;;;;;2.65;1.65;;;;;;;16.32;78.61;100498.81;10417624;28;20077;-70
2022/08/31 21:10:31;;;;;;;3.13;1.92;;;;;;;16.29;78.65;100497.19;10416988;28;20099;-69
2022/08/31 21:15:41;;;;;;;2.17;1.67;;;;;;;16.38;77.70;100496.75;10416551;28;20045;-69
2022/08/31 21:20:45;;;;;;;1.98;1.77;;;;;;;16.23;78.27;100500.13;10416565;28;20060;-69
2022/08/31 21:25:46;;;;;;;2.05;1.55;;;;;;;15.93;80.04;100499.75;10398738;28;20107;-70
2022/08/31 21:30:51;;;;;;;2.10;1.70;;;;;;;15.60;82.89;100500.34;10398711;28;20041;-71
2022/08/31 21:36:01;;;;;;;3.13;1.80;;;;;;;15.86;81.52;100498.34;10399170;28;20072;-70
2022/08/31 21:41:04;;;;;;;3.38;2.00;;;;;;;15.68;81.87;100501.84;10416233;28;20044;-71
2022/08/31 21:46:12;;;;;;;2.63;1.80;;;;;;;15.53;82.87;100498.88;10398076;28;20045;-71
2022/08/31 21:51:23;;;;;;;3.28;2.05;;;;;;;15.57;83.02;100507.56;10415651;28;20048;-70
2022/08/31 21:56:27;;;;;;;2.17;1.73;;;;;;;15.35;83.60;100502.38;10415228;28;20053;-70
2022/08/31 22:01:32;;;;;;;2.78;2.00;;;;;;;15.31;83.84;100506.06;10398007;28;20064;-70
2022/08/31 22:06:35;;;;;;;2.03;1.83;;;;;;;15.27;84.14;100512.44;10415022;28;20068;-70
2022/08/31 22:11:42;;;;;;;2.03;1.50;;;;;;;15.31;83.01;100511.38;10415951;28;20049;-69
2022/08/31 22:16:46;;;;;;;2.17;1.60;;;;;;;15.15;83.71;100511.19;10414789;28;20483;-70
2022/08/31 22:21:54;;;;;;;3.47;1.52;;;;;;;15.23;83.15;100503.78;10415399;28;20112;-69
2022/08/31 22:26:58;;;;;;;4.03;1.73;;;;;;;15.18;83.31;100507.53;10415024;28;20076;-70
2022/08/31 22:32:10;;;;;;;1.73;1.60;;;;;;;14.93;84.93;100513.88;10418619;28;20067;-70
2022/08/31 22:37:12;;;;;;;3.58;1.95;;;;;;;14.97;84.74;100502.25;10422516;28;20041;-70
2022/08/31 22:42:15;;;;;;;3.35;1.50;;;;;;;14.90;84.81;100511.34;10422416;28;20077;-70
2022/08/31 22:47:16;;;;;;;1.80;1.70;;;;;;;14.73;86.45;100509.41;10422445;28;20045;-70
2022/08/31 22:52:18;;;;;;;2.17;1.50;;;;;;;14.52;88.14;100508.53;10423000;28;20048;-70
2022/08/31 22:57:20;;;;;;;2.17;1.80;;;;;;;14.52;88.40;100502.34;10422109;28;20045;-70
2022/08/31 23:02:24;;;;;;;2.88;2.15;;;;;;;14.48;88.42;100501.63;10403820;28;20045;-70
2022/08/31 23:07:27;;;;;;;2.10;1.90;;;;;;;14.40;89.24;100508.97;10422042;28;20483;-70
2022/08/31 23:12:28;;;;;;;3.58;1.85;;;;;;;14.23;90.23;100512.28;10421357;28;20037;-70
2022/08/31 23:17:30;;;;;;;2.45;1.63;;;;;;;14.29;89.46;100503.25;10403771;28;20092;-70
2022/08/31 23:22:35;;;;;;;2.10;1.42;;;;;;;14.46;87.82;100508.72;10421249;28;20450;-70
2022/08/31 23:27:37;;;;;;;2.75;1.80;;;;;;;14.01;91.75;100509.59;10420993;28;20514;-70
2022/08/31 23:32:40;;;;;;;4.63;1.90;;;;;;;13.92;92.50;100515.25;10420529;28;20044;-70
2022/08/31 23:37:42;;;;;;;2.33;1.90;;;;;;;13.98;92.66;100507.06;10402914;28;20116;-70
2022/08/31 23:42:43;;;;;;;4.95;1.80;;;;;;;14.27;89.91;100503.31;10419519;28;20074;-70
2022/08/31 23:47:45;;;;;;;2.08;1.88;;;;;;;14.26;88.56;100500.75;10420536;28;20478;-70